sensor_id;sensor_type;location;lat;lon;timestamp;pressure;altitude;pressure_sealevel;temperature;humidity
20394;BME280;10356;50.544;9.642;2024-01-30T00:01:00;99662.66;;;-0.59;100.00
20394;BME280;10356;50.544;9.642;2024-01-30T00:03:27;99660.13;;;-0.62;100.00
20394;BME280;10356;50.544;9.642;2024-01-30T00:05:54;99659.28;;;-0.64;100.00
20394;BME280;10356;50.544;9.642;2024-01-30T00:08:22;99667.81;;;-0.62;100.00
20394;BME280;10356;50.544;9.642;2024-01-30T00:10:49;99667.81;;;-0.62;100.00
20394;BME280;10356;50.544;9.642;2024-01-30T00:13:15;99663.53;;;-0.62;100.00
20394;BME280;10356;50.544;9.642;2024-01-30T00:15:44;99660.13;;;-0.62;100.00
20394;BME280;10356;50.544;9.642;2024-01-30T00:18:11;99656.72;;;-0.64;100.00
20394;BME280;10356;50.544;9.642;2024-01-30T00:20:37;99655.88;;;-0.63;100.00
20394;BME280;10356;50.544;9.642;2024-01-30T00:23:04;99664.41;;;-0.64;100.00
20394;BME280;10356;50.544;9.642;2024-01-30T00:25:32;99652.44;;;-0.62;100.00
20394;BME280;10356;50.544;9.642;2024-01-30T00:27:58;99649.91;;;-0.64;100.00
20394;BME280;10356;50.544;9.642;2024-01-30T00:30:25;99650.78;;;-0.66;100.00
20394;BME280;10356;50.544;9.642;2024-01-30T00:32:51;99645.72;;;-0.69;100.00
20394;BME280;10356;50.544;9.642;2024-01-30T00:35:18;99646.56;;;-0.69;100.00
20394;BME280;10356;50.544;9.642;2024-01-30T00:37:44;99644.06;;;-0.76;100.00
20394;BME280;10356;50.544;9.642;2024-01-30T00:40:10;99639.00;;;-0.81;100.00
20394;BME280;10356;50.544;9.642;2024-01-30T00:42:42;99643.31;;;-0.83;100.00
20394;BME280;10356;50.544;9.642;2024-01-30T00:45:12;99635.63;;;-0.85;100.00
20394;BME280;10356;50.544;9.642;2024-01-30T00:47:38;99625.44;;;-0.88;100.00
20394;BME280;10356;50.544;9.642;2024-01-30T00:50:05;99622.00;;;-0.88;100.00
20394;BME280;10356;50.544;9.642;2024-01-30T00:52:32;99627.16;;;-0.90;100.00
20394;BME280;10356;50.544;9.642;2024-01-30T00:54:58;99630.56;;;-0.91;100.00
20394;BME280;10356;50.544;9.642;2024-01-30T00:57:25;99634.84;;;-0.93;100.00
20394;BME280;10356;50.544;9.642;2024-01-30T00:59:53;99634.81;;;-0.90;100.00
20394;BME280;10356;50.544;9.642;2024-01-30T01:02:20;99628.91;;;-0.93;100.00
20394;BME280;10356;50.544;9.642;2024-01-30T01:04:46;99638.34;;;-1.01;100.00
20394;BME280;10356;50.544;9.642;2024-01-30T01:07:13;99636.66;;;-1.04;100.00
20394;BME280;10356;50.544;9.642;2024-01-30T01:09:39;99626.44;;;-1.07;100.00
20394;BME280;10356;50.544;9.642;2024-01-30T01:12:06;99623.06;;;-1.09;100.00
20394;BME280;10356;50.544;9.642;2024-01-30T01:14:32;99616.25;;;-1.08;100.00
20394;BME280;10356;50.544;9.642;2024-01-30T01:17:00;99617.94;;;-1.07;100.00
20394;BME280;10356;50.544;9.642;2024-01-30T01:19:27;99627.28;;;-1.05;100.00
20394;BME280;10356;50.544;9.642;2024-01-30T01:21:53;99627.28;;;-1.02;100.00
20394;BME280;10356;50.544;9.642;2024-01-30T01:24:20;99635.75;;;-0.98;100.00
20394;BME280;10356;50.544;9.642;2024-01-30T01:26:46;99636.66;;;-1.04;100.00
20394;BME280;10356;50.544;9.642;2024-01-30T01:29:12;99641.00;;;-1.12;100.00
20394;BME280;10356;50.544;9.642;2024-01-30T01:31:40;99644.44;;;-1.16;100.00
20394;BME280;10356;50.544;9.642;2024-01-30T01:34:10;99629.97;;;-1.18;100.00
20394;BME280;10356;50.544;9.642;2024-01-30T01:36:37;99628.25;;;-1.16;100.00
20394;BME280;10356;50.544;9.642;2024-01-30T01:39:03;99635.88;;;-1.12;100.00
20394;BME280;10356;50.544;9.642;2024-01-30T01:41:30;99624.84;;;-1.17;100.00
20394;BME280;10356;50.544;9.642;2024-01-30T01:43:57;99639.34;;;-1.19;100.00
20394;BME280;10356;50.544;9.642;2024-01-30T01:46:26;99641.06;;;-1.21;100.00
20394;BME280;10356;50.544;9.642;2024-01-30T01:48:53;99644.50;;;-1.22;100.00
20394;BME280;10356;50.544;9.642;2024-01-30T01:51:23;99635.97;;;-1.22;100.00
20394;BME280;10356;50.544;9.642;2024-01-30T01:53:50;99641.13;;;-1.25;100.00
20394;BME280;10356;50.544;9.642;2024-01-30T01:56:17;99640.28;;;-1.27;100.00
20394;BME280;10356;50.544;9.642;2024-01-30T01:58:44;99622.38;;;-1.26;100.00
20394;BME280;10356;50.544;9.642;2024-01-30T02:01:13;99618.94;;;-1.25;100.00
20394;BME280;10356;50.544;9.642;2024-01-30T02:03:40;99624.84;;;-1.17;100.00
20394;BME280;10356;50.544;9.642;2024-01-30T02:06:07;99624.00;;;-1.16;100.00
20394;BME280;10356;50.544;9.642;2024-01-30T02:08:37;99623.09;;;-1.10;100.00
20394;BME280;10356;50.544;9.642;2024-01-30T02:11:03;99622.25;;;-1.14;100.00
20394;BME280;10356;50.544;9.642;2024-01-30T02:13:30;99618.84;;;-1.11;100.00
20394;BME280;10356;50.544;9.642;2024-01-30T02:15:57;99623.16;;;-1.18;100.00
20394;BME280;10356;50.544;9.642;2024-01-30T02:18:23;99618.91;;;-1.20;100.00
20394;BME280;10356;50.544;9.642;2024-01-30T02:20:53;99623.94;;;-1.13;100.00
20394;BME280;10356;50.544;9.642;2024-01-30T02:23:23;99621.34;;;-1.08;100.00
20394;BME280;10356;50.544;9.642;2024-01-30T02:25:50;99619.66;;;-1.08;100.00
20394;BME280;10356;50.544;9.642;2024-01-30T02:28:18;99621.38;;;-1.13;100.00
20394;BME280;10356;50.544;9.642;2024-01-30T02:30:46;99624.00;;;-1.17;100.00
20394;BME280;10356;50.544;9.642;2024-01-30T02:33:13;99625.72;;;-1.21;100.00
20394;BME280;10356;50.544;9.642;2024-01-30T02:35:39;99621.50;;;-1.23;100.00
20394;BME280;10356;50.544;9.642;2024-01-30T02:38:06;99628.31;;;-1.24;100.00
20394;BME280;10356;50.544;9.642;2024-01-30T02:40:34;99624.03;;;-1.22;100.00
20394;BME280;10356;50.544;9.642;2024-01-30T02:43:02;99620.59;;;-1.21;100.00
20394;BME280;10356;50.544;9.642;2024-01-30T02:45:29;99623.19;;;-1.19;100.00
20394;BME280;10356;50.544;9.642;2024-01-30T02:47:55;99625.72;;;-1.18;100.00
20394;BME280;10356;50.544;9.642;2024-01-30T02:50:22;99623.94;;;-1.13;100.00
20394;BME280;10356;50.544;9.642;2024-01-30T02:52:48;99621.44;;;-1.19;100.00
20394;BME280;10356;50.544;9.642;2024-01-30T02:55:15;99621.50;;;-1.26;100.00
20394;BME280;10356;50.544;9.642;2024-01-30T02:57:44;99619.00;;;-1.31;100.00
20394;BME280;10356;50.544;9.642;2024-01-30T03:00:11;99619.81;;;-1.26;100.00
20394;BME280;10356;50.544;9.642;2024-01-30T03:02:38;99613.00;;;-1.25;100.00
20394;BME280;10356;50.544;9.642;2024-01-30T03:05:05;99615.53;;;-1.24;100.00
20394;BME280;10356;50.544;9.642;2024-01-30T03:07:33;99611.22;;;-1.20;100.00
20394;BME280;10356;50.544;9.642;2024-01-30T03:09:59;99610.44;;;-1.24;100.00
20394;BME280;10356;50.544;9.642;2024-01-30T03:12:26;99608.75;;;-1.28;100.00
20394;BME280;10356;50.544;9.642;2024-01-30T03:14:54;99601.97;;;-1.35;100.00
20394;BME280;10356;50.544;9.642;2024-01-30T03:17:20;99608.81;;;-1.37;100.00
20394;BME280;10356;50.544;9.642;2024-01-30T03:19:47;99609.66;;;-1.36;100.00
20394;BME280;10356;50.544;9.642;2024-01-30T03:22:13;99605.41;;;-1.34;100.00
20394;BME280;10356;50.544;9.642;2024-01-30T03:24:40;99601.97;;;-1.35;100.00
20394;BME280;10356;50.544;9.642;2024-01-30T03:27:06;99603.75;;;-1.40;100.00
20394;BME280;10356;50.544;9.642;2024-01-30T03:29:33;99592.69;;;-1.43;100.00
20394;BME280;10356;50.544;9.642;2024-01-30T03:32:01;99590.16;;;-1.46;100.00
20394;BME280;10356;50.544;9.642;2024-01-30T03:34:29;99587.59;;;-1.46;100.00
20394;BME280;10356;50.544;9.642;2024-01-30T03:36:55;99588.47;;;-1.49;100.00
20394;BME280;10356;50.544;9.642;2024-01-30T03:39:22;99592.75;;;-1.51;100.00
20394;BME280;10356;50.544;9.642;2024-01-30T03:41:49;99595.34;;;-1.54;100.00
20394;BME280;10356;50.544;9.642;2024-01-30T03:44:15;99599.63;;;-1.60;100.00
20394;BME280;10356;50.544;9.642;2024-01-30T03:46:42;99595.34;;;-1.54;100.00
20394;BME280;10356;50.544;9.642;2024-01-30T03:49:10;99598.75;;;-1.56;100.00
20394;BME280;10356;50.544;9.642;2024-01-30T03:51:37;99600.47;;;-1.57;100.00
20394;BME280;10356;50.544;9.642;2024-01-30T03:54:03;99597.06;;;-1.59;100.00
20394;BME280;10356;50.544;9.642;2024-01-30T03:56:30;99599.66;;;-1.62;100.00
20394;BME280;10356;50.544;9.642;2024-01-30T03:58:56;99592.00;;;-1.65;100.00
20394;BME280;10356;50.544;9.642;2024-01-30T04:01:23;99595.44;;;-1.66;100.00
20394;BME280;10356;50.544;9.642;2024-01-30T04:03:50;99602.22;;;-1.62;100.00
20394;BME280;10356;50.544;9.642;2024-01-30T04:06:18;99593.66;;;-1.59;100.00
20394;BME280;10356;50.544;9.642;2024-01-30T04:08:44;99599.66;;;-1.62;100.00
20394;BME280;10356;50.544;9.642;2024-01-30T04:11:11;99597.09;;;-1.62;100.00
20394;BME280;10356;50.544;9.642;2024-01-30T04:13:37;99600.50;;;-1.63;100.00
20394;BME280;10356;50.544;9.642;2024-01-30T04:16:04;99593.72;;;-1.64;100.00
20394;BME280;10356;50.544;9.642;2024-01-30T04:18:31;99598.81;;;-1.65;100.00
20394;BME280;10356;50.544;9.642;2024-01-30T04:20:59;99596.25;;;-1.64;100.00
20394;BME280;10356;50.544;9.642;2024-01-30T04:23:27;99591.16;;;-1.65;100.00
20394;BME280;10356;50.544;9.642;2024-01-30T04:25:53;99590.31;;;-1.66;100.00
20394;BME280;10356;50.544;9.642;2024-01-30T04:28:20;99586.94;;;-1.68;100.00
20394;BME280;10356;50.544;9.642;2024-01-30T04:30:46;99592.03;;;-1.71;100.00
20394;BME280;10356;50.544;9.642;2024-01-30T04:33:12;99592.91;;;-1.71;100.00
20394;BME280;10356;50.544;9.642;2024-01-30T04:35:39;99592.03;;;-1.71;100.00
20394;BME280;10356;50.544;9.642;2024-01-30T04:38:05;99590.38;;;-1.75;100.00
20394;BME280;10356;50.544;9.642;2024-01-30T04:40:33;99592.09;;;-1.74;100.00
20394;BME280;10356;50.544;9.642;2024-01-30T04:42:59;99588.66;;;-1.75;100.00
20394;BME280;10356;50.544;9.642;2024-01-30T04:45:26;99593.78;;;-1.78;100.00
20394;BME280;10356;50.544;9.642;2024-01-30T04:47:53;99588.69;;;-1.76;100.00
20394;BME280;10356;50.544;9.642;2024-01-30T04:50:19;99588.69;;;-1.76;100.00
20394;BME280;10356;50.544;9.642;2024-01-30T04:52:45;99586.97;;;-1.74;100.00
20394;BME280;10356;50.544;9.642;2024-01-30T04:55:12;99592.91;;;-1.72;100.00
20394;BME280;10356;50.544;9.642;2024-01-30T04:57:40;99592.91;;;-1.72;100.00
20394;BME280;10356;50.544;9.642;2024-01-30T05:00:07;99597.97;;;-1.67;100.00
20394;BME280;10356;50.544;9.642;2024-01-30T05:02:34;99595.44;;;-1.69;100.00
20394;BME280;10356;50.544;9.642;2024-01-30T05:05:01;99589.50;;;-1.76;100.00
20394;BME280;10356;50.544;9.642;2024-01-30T05:07:28;99590.41;;;-1.81;100.00
20394;BME280;10356;50.544;9.642;2024-01-30T05:09:54;99593.84;;;-1.82;100.00
20394;BME280;10356;50.544;9.642;2024-01-30T05:12:20;99593.88;;;-1.88;100.00
20394;BME280;10356;50.544;9.642;2024-01-30T05:14:48;99597.28;;;-1.89;100.00
20394;BME280;10356;50.544;9.642;2024-01-30T05:17:15;99596.41;;;-1.90;100.00
20394;BME280;10356;50.544;9.642;2024-01-30T05:19:43;99599.84;;;-1.89;100.00
20394;BME280;10356;50.544;9.642;2024-01-30T05:22:10;99604.09;;;-1.90;100.00
20394;BME280;10356;50.544;9.642;2024-01-30T05:24:40;99594.75;;;-1.92;100.00
20394;BME280;10356;50.544;9.642;2024-01-30T05:27:07;99605.81;;;-1.93;100.00
20394;BME280;10356;50.544;9.642;2024-01-30T05:29:33;99599.00;;;-1.88;100.00
20394;BME280;10356;50.544;9.642;2024-01-30T05:32:01;99598.91;;;-1.79;100.00
20394;BME280;10356;50.544;9.642;2024-01-30T05:34:27;99609.91;;;-1.70;100.00
20394;BME280;10356;50.544;9.642;2024-01-30T05:36:54;99612.38;;;-1.57;100.00
20394;BME280;10356;50.544;9.642;2024-01-30T05:39:20;99605.47;;;-1.42;100.00
20394;BME280;10356;50.544;9.642;2024-01-30T05:41:47;99600.34;;;-1.43;100.00
20394;BME280;10356;50.544;9.642;2024-01-30T05:44:13;99608.94;;;-1.53;100.00
20394;BME280;10356;50.544;9.642;2024-01-30T05:46:40;99619.22;;;-1.58;100.00
20394;BME280;10356;50.544;9.642;2024-01-30T05:49:08;99610.59;;;-1.45;100.00
20394;BME280;10356;50.544;9.642;2024-01-30T05:51:34;99608.72;;;-1.25;100.00
20394;BME280;10356;50.544;9.642;2024-01-30T05:54:01;99608.59;;;-1.10;100.00
20394;BME280;10356;50.544;9.642;2024-01-30T05:56:28;99612.81;;;-1.06;100.00
20394;BME280;10356;50.544;9.642;2024-01-30T05:58:55;99608.53;;;-1.04;100.00
20394;BME280;10356;50.544;9.642;2024-01-30T06:01:21;99605.03;;;-0.97;100.00
20394;BME280;10356;50.544;9.642;2024-01-30T06:03:48;99611.75;;;-0.87;100.00
20394;BME280;10356;50.544;9.642;2024-01-30T06:06:15;99604.84;;;-0.78;100.00
20394;BME280;10356;50.544;9.642;2024-01-30T06:08:42;99609.00;;;-0.68;100.00
20394;BME280;10356;50.544;9.642;2024-01-30T06:11:10;99609.03;;;-0.67;100.00
20394;BME280;10356;50.544;9.642;2024-01-30T06:13:37;99607.44;;;-0.80;100.00
20394;BME280;10356;50.544;9.642;2024-01-30T06:16:04;99609.34;;;-0.97;100.00
20394;BME280;10356;50.544;9.642;2024-01-30T06:18:31;99606.84;;;-1.06;100.00
20394;BME280;10356;50.544;9.642;2024-01-30T06:20:57;99614.59;;;-1.17;100.00
20394;BME280;10356;50.544;9.642;2024-01-30T06:23:25;99608.66;;;-1.19;100.00
20394;BME280;10356;50.544;9.642;2024-01-30T06:25:52;99613.81;;;-1.25;100.00
20394;BME280;10356;50.544;9.642;2024-01-30T06:28:18;99611.28;;;-1.25;100.00
20394;BME280;10356;50.544;9.642;2024-01-30T06:30:44;99607.91;;;-1.31;100.00
20394;BME280;10356;50.544;9.642;2024-01-30T06:33:11;99606.25;;;-1.34;100.00
20394;BME280;10356;50.544;9.642;2024-01-30T06:35:38;99607.13;;;-1.38;100.00
20394;BME280;10356;50.544;9.642;2024-01-30T06:38:05;99613.13;;;-1.43;100.00
20394;BME280;10356;50.544;9.642;2024-01-30T06:40:33;99620.78;;;-1.42;100.00
20394;BME280;10356;50.544;9.642;2024-01-30T06:42:59;99617.38;;;-1.41;100.00
20394;BME280;10356;50.544;9.642;2024-01-30T06:45:26;99613.13;;;-1.43;100.00
20394;BME280;10356;50.544;9.642;2024-01-30T06:47:52;99615.69;;;-1.45;100.00
20394;BME280;10356;50.544;9.642;2024-01-30T06:50:19;99617.41;;;-1.44;100.00
20394;BME280;10356;50.544;9.642;2024-01-30T06:52:45;99621.66;;;-1.43;100.00
20394;BME280;10356;50.544;9.642;2024-01-30T06:55:12;99621.69;;;-1.46;100.00
20394;BME280;10356;50.544;9.642;2024-01-30T06:57:39;99624.25;;;-1.50;100.00
20394;BME280;10356;50.544;9.642;2024-01-30T07:00:07;99619.16;;;-1.50;100.00
20394;BME280;10356;50.544;9.642;2024-01-30T07:02:33;99620.84;;;-1.51;100.00
20394;BME280;10356;50.544;9.642;2024-01-30T07:05:00;99622.56;;;-1.50;100.00
20394;BME280;10356;50.544;9.642;2024-01-30T07:07:26;99621.66;;;-1.47;100.00
20394;BME280;10356;50.544;9.642;2024-01-30T07:09:54;99619.09;;;-1.43;100.00
20394;BME280;10356;50.544;9.642;2024-01-30T07:12:21;99625.00;;;-1.39;100.00
20394;BME280;10356;50.544;9.642;2024-01-30T07:14:49;99622.41;;;-1.32;100.00
20394;BME280;10356;50.544;9.642;2024-01-30T07:17:16;99617.25;;;-1.26;100.00
20394;BME280;10356;50.544;9.642;2024-01-30T07:19:42;99621.50;;;-1.23;100.00
20394;BME280;10356;50.544;9.642;2024-01-30T07:22:09;99629.16;;;-1.22;100.00
20394;BME280;10356;50.544;9.642;2024-01-30T07:24:35;99618.94;;;-1.25;100.00
20394;BME280;10356;50.544;9.642;2024-01-30T07:27:02;99623.19;;;-1.22;100.00
20394;BME280;10356;50.544;9.642;2024-01-30T07:29:29;99625.72;;;-1.21;100.00
20394;BME280;10356;50.544;9.642;2024-01-30T07:31:56;99623.16;;;-1.18;100.00
20394;BME280;10356;50.544;9.642;2024-01-30T07:34:23;99624.81;;;-1.12;100.00
20394;BME280;10356;50.544;9.642;2024-01-30T07:36:49;99621.34;;;-1.07;100.00
20394;BME280;10356;50.544;9.642;2024-01-30T07:39:16;99613.59;;;-1.01;100.00
20394;BME280;10356;50.544;9.642;2024-01-30T07:41:42;99616.94;;;-0.93;100.00
20394;BME280;10356;50.544;9.642;2024-01-30T07:44:09;99615.16;;;-0.85;100.00
20394;BME280;10356;50.544;9.642;2024-01-30T07:46:35;99616.69;;;-0.68;100.00
20394;BME280;10356;50.544;9.642;2024-01-30T07:49:03;99609.69;;;-0.54;100.00
20394;BME280;10356;50.544;9.642;2024-01-30T07:51:29;99606.09;;;-0.38;100.00
20394;BME280;10356;50.544;9.642;2024-01-30T07:53:58;99612.72;;;-0.22;100.00
20394;BME280;10356;50.544;9.642;2024-01-30T07:56:24;99608.28;;;-0.07;100.00
20394;BME280;10356;50.544;9.642;2024-01-30T07:58:51;99618.34;;;0.07;100.00
20394;BME280;10356;50.544;9.642;2024-01-30T08:01:18;99609.72;;;0.14;100.00
20394;BME280;10356;50.544;9.642;2024-01-30T08:03:45;99607.84;;;0.24;100.00
20394;BME280;10356;50.544;9.642;2024-01-30T08:06:12;99614.56;;;0.32;100.00
20394;BME280;10356;50.544;9.642;2024-01-30T08:08:39;99621.28;;;0.39;100.00
20394;BME280;10356;50.544;9.642;2024-01-30T08:11:05;99613.50;;;0.45;100.00
20394;BME280;10356;50.544;9.642;2024-01-30T08:13:32;99615.06;;;0.55;100.00
20394;BME280;10356;50.544;9.642;2024-01-30T08:15:59;99614.94;;;0.64;100.00
20394;BME280;10356;50.544;9.642;2024-01-30T08:18:25;99609.66;;;0.72;100.00
20394;BME280;10356;50.544;9.642;2024-01-30T08:20:52;99618.94;;;0.79;100.00
20394;BME280;10356;50.544;9.642;2024-01-30T08:23:20;99623.97;;;0.87;100.00
20394;BME280;10356;50.544;9.642;2024-01-30T08:25:46;99619.59;;;0.92;100.00
20394;BME280;10356;50.544;9.642;2024-01-30T08:28:13;99620.41;;;0.94;100.00
20394;BME280;10356;50.544;9.642;2024-01-30T08:30:40;99616.09;;;0.96;100.00
20394;BME280;10356;50.544;9.642;2024-01-30T08:33:06;99614.22;;;1.05;100.00
20394;BME280;10356;50.544;9.642;2024-01-30T08:35:32;99620.06;;;1.13;100.00
20394;BME280;10356;50.544;9.642;2024-01-30T08:37:59;99612.25;;;1.21;100.00
20394;BME280;10356;50.544;9.642;2024-01-30T08:40:27;99608.66;;;1.28;100.00
20394;BME280;10356;50.544;9.642;2024-01-30T08:42:55;99613.69;;;1.34;100.00
20394;BME280;10356;50.544;9.642;2024-01-30T08:45:21;99616.13;;;1.40;100.00
20394;BME280;10356;50.544;9.642;2024-01-30T08:47:47;99612.56;;;1.48;100.00
20394;BME280;10356;50.544;9.642;2024-01-30T08:50:14;99620.06;;;1.59;100.00
20394;BME280;10356;50.544;9.642;2024-01-30T08:52:41;99623.22;;;1.73;100.00
20394;BME280;10356;50.544;9.642;2024-01-30T08:55:07;99623.81;;;1.84;100.00
20394;BME280;10356;50.544;9.642;2024-01-30T08:57:35;99622.75;;;1.94;100.00
20394;BME280;10356;50.544;9.642;2024-01-30T09:00:02;99619.91;;;2.06;100.00
20394;BME280;10356;50.544;9.642;2024-01-30T09:02:31;99623.16;;;2.16;100.00
20394;BME280;10356;50.544;9.642;2024-01-30T09:04:58;99627.22;;;2.24;100.00
20394;BME280;10356;50.544;9.642;2024-01-30T09:07:25;99620.13;;;2.35;100.00
20394;BME280;10356;50.544;9.642;2024-01-30T09:09:51;99620.78;;;2.45;100.00
20394;BME280;10356;50.544;9.642;2024-01-30T09:12:18;99621.38;;;2.54;100.00
20394;BME280;10356;50.544;9.642;2024-01-30T09:14:45;99616.03;;;2.64;100.00
20394;BME280;10356;50.544;9.642;2024-01-30T09:17:12;99619.13;;;2.78;100.00
20394;BME280;10356;50.544;9.642;2024-01-30T09:19:40;99622.31;;;2.89;100.00
20394;BME280;10356;50.544;9.642;2024-01-30T09:22:06;99621.16;;;3.00;100.00
20394;BME280;10356;50.544;9.642;2024-01-30T09:24:33;99629.41;;;3.13;100.00
20394;BME280;10356;50.544;9.642;2024-01-30T09:27:00;99636.88;;;3.22;100.00
20394;BME280;10356;50.544;9.642;2024-01-30T09:29:26;99626.28;;;3.34;100.00
20394;BME280;10356;50.544;9.642;2024-01-30T09:31:54;99633.84;;;3.40;100.00
20394;BME280;10356;50.544;9.642;2024-01-30T09:34:21;99627.47;;;3.53;100.00
20394;BME280;10356;50.544;9.642;2024-01-30T09:36:47;99630.69;;;3.61;100.00
20394;BME280;10356;50.544;9.642;2024-01-30T09:39:14;99633.00;;;3.70;100.00
20394;BME280;10356;50.544;9.642;2024-01-30T09:41:44;99634.47;;;3.79;100.00
20394;BME280;10356;50.544;9.642;2024-01-30T09:44:11;99631.78;;;3.83;100.00
20394;BME280;10356;50.544;9.642;2024-01-30T09:46:38;99645.19;;;3.96;100.00
20394;BME280;10356;50.544;9.642;2024-01-30T09:49:08;99635.44;;;4.05;100.00
20394;BME280;10356;50.544;9.642;2024-01-30T09:51:35;99642.88;;;4.14;100.00
20394;BME280;10356;50.544;9.642;2024-01-30T09:54:02;99640.75;;;4.28;100.00
20394;BME280;10356;50.544;9.642;2024-01-30T09:56:29;99645.69;;;4.64;100.00
20394;BME280;10356;50.544;9.642;2024-01-30T09:58:55;99649.38;;;4.83;100.00
20394;BME280;10356;50.544;9.642;2024-01-30T10:01:22;99645.09;;;5.08;100.00
20394;BME280;10356;50.544;9.642;2024-01-30T10:03:50;99651.16;;;5.33;100.00
20394;BME280;10356;50.544;9.642;2024-01-30T10:06:19;99647.72;;;5.57;98.07
20394;BME280;10356;50.544;9.642;2024-01-30T10:08:47;99640.91;;;5.79;97.07
20394;BME280;10356;50.544;9.642;2024-01-30T10:11:14;99642.94;;;5.94;96.35
20394;BME280;10356;50.544;9.642;2024-01-30T10:13:40;99641.63;;;6.08;95.87
20394;BME280;10356;50.544;9.642;2024-01-30T10:16:07;99638.50;;;6.21;94.52
20394;BME280;10356;50.544;9.642;2024-01-30T10:18:33;99644.06;;;6.34;92.70
20394;BME280;10356;50.544;9.642;2024-01-30T10:21:00;99657.56;;;6.42;91.89
20394;BME280;10356;50.544;9.642;2024-01-30T10:23:28;99646.13;;;6.47;92.05
20394;BME280;10356;50.544;9.642;2024-01-30T10:25:55;99651.78;;;6.57;91.22
20394;BME280;10356;50.544;9.642;2024-01-30T10:28:22;99643.91;;;6.60;90.41
20394;BME280;10356;50.544;9.642;2024-01-30T10:30:57;99638.56;;;6.64;88.12
20394;BME280;10356;50.544;9.642;2024-01-30T10:33:24;99628.91;;;6.68;88.13
20394;BME280;10356;50.544;9.642;2024-01-30T10:35:51;99624.34;;;6.74;87.46
20394;BME280;10356;50.544;9.642;2024-01-30T10:38:19;99624.78;;;6.84;86.74
20394;BME280;10356;50.544;9.642;2024-01-30T10:40:48;99625.97;;;6.97;85.18
20394;BME280;10356;50.544;9.642;2024-01-30T10:43:20;99618.69;;;7.07;84.74
20394;BME280;10356;50.544;9.642;2024-01-30T10:45:49;99620.28;;;7.09;84.75
20394;BME280;10356;50.544;9.642;2024-01-30T10:48:22;99616.91;;;7.27;84.52
20394;BME280;10356;50.544;9.642;2024-01-30T10:50:54;99612.78;;;7.43;83.06
20394;BME280;10356;50.544;9.642;2024-01-30T10:53:22;99604.47;;;7.55;82.09
20394;BME280;10356;50.544;9.642;2024-01-30T10:55:51;99602.25;;;7.67;81.95
20394;BME280;10356;50.544;9.642;2024-01-30T10:58:18;99594.97;;;7.75;80.43
20394;BME280;10356;50.544;9.642;2024-01-30T11:00:45;99592.88;;;7.83;80.70
20394;BME280;10356;50.544;9.642;2024-01-30T11:03:11;99590.97;;;7.86;79.63
20394;BME280;10356;50.544;9.642;2024-01-30T11:05:40;99603.47;;;7.97;80.19
20394;BME280;10356;50.544;9.642;2024-01-30T11:08:11;99598.66;;;8.08;80.39
20394;BME280;10356;50.544;9.642;2024-01-30T11:10:44;99597.31;;;8.18;80.28
20394;BME280;10356;50.544;9.642;2024-01-30T11:13:13;99590.53;;;8.34;78.79
20394;BME280;10356;50.544;9.642;2024-01-30T11:15:40;99594.97;;;8.49;77.60
20394;BME280;10356;50.544;9.642;2024-01-30T11:18:06;99592.19;;;8.54;76.27
20394;BME280;10356;50.544;9.642;2024-01-30T11:20:33;99589.38;;;8.58;76.22
20394;BME280;10356;50.544;9.642;2024-01-30T11:23:01;99585.75;;;8.61;76.13
20394;BME280;10356;50.544;9.642;2024-01-30T11:25:32;99585.16;;;8.73;75.42
20394;BME280;10356;50.544;9.642;2024-01-30T11:27:58;99575.91;;;8.67;74.50
20394;BME280;10356;50.544;9.642;2024-01-30T11:30:27;99576.47;;;8.74;74.53
20394;BME280;10356;50.544;9.642;2024-01-30T11:33:05;99578.91;;;8.77;74.96
20394;BME280;10356;50.544;9.642;2024-01-30T11:35:32;99575.47;;;8.76;74.08
20394;BME280;10356;50.544;9.642;2024-01-30T11:38:00;99581.66;;;8.91;74.31
20394;BME280;10356;50.544;9.642;2024-01-30T11:40:27;99589.41;;;8.92;73.72
20394;BME280;10356;50.544;9.642;2024-01-30T11:42:55;99587.19;;;9.02;73.50
20394;BME280;10356;50.544;9.642;2024-01-30T11:45:21;99591.63;;;9.00;73.65
20394;BME280;10356;50.544;9.642;2024-01-30T11:47:49;99576.72;;;9.03;72.90
20394;BME280;10356;50.544;9.642;2024-01-30T11:50:16;99575.19;;;9.16;73.07
20394;BME280;10356;50.544;9.642;2024-01-30T11:52:43;99574.44;;;9.14;72.29
20394;BME280;10356;50.544;9.642;2024-01-30T11:55:09;99574.66;;;9.10;71.97
20394;BME280;10356;50.544;9.642;2024-01-30T11:57:36;99572.72;;;9.13;72.33
20394;BME280;10356;50.544;9.642;2024-01-30T12:00:04;99570.59;;;9.04;72.24
20394;BME280;10356;50.544;9.642;2024-01-30T12:02:35;99561.88;;;8.88;72.79
20394;BME280;10356;50.544;9.642;2024-01-30T12:05:04;99561.41;;;8.97;73.16
20394;BME280;10356;50.544;9.642;2024-01-30T12:07:31;99565.31;;;9.06;73.07
20394;BME280;10356;50.544;9.642;2024-01-30T12:09:58;99556.97;;;8.99;72.74
20394;BME280;10356;50.544;9.642;2024-01-30T12:12:25;99559.22;;;9.07;73.12
20394;BME280;10356;50.544;9.642;2024-01-30T12:14:52;99558.72;;;9.16;73.68
20394;BME280;10356;50.544;9.642;2024-01-30T12:17:28;99556.81;;;9.19;73.02
20394;BME280;10356;50.544;9.642;2024-01-30T12:20:04;99550.25;;;9.12;71.63
20394;BME280;10356;50.544;9.642;2024-01-30T12:22:33;99550.88;;;9.00;72.70
20394;BME280;10356;50.544;9.642;2024-01-30T12:25:00;99556.22;;;8.97;72.37
20394;BME280;10356;50.544;9.642;2024-01-30T12:27:26;99554.38;;;8.99;72.56
20394;BME280;10356;50.544;9.642;2024-01-30T12:29:56;99556.06;;;9.00;72.45
20394;BME280;10356;50.544;9.642;2024-01-30T12:32:23;99562.41;;;8.95;73.21
20394;BME280;10356;50.544;9.642;2024-01-30T12:34:50;99556.81;;;8.85;73.13
20394;BME280;10356;50.544;9.642;2024-01-30T12:37:17;99560.72;;;8.77;73.52
20394;BME280;10356;50.544;9.642;2024-01-30T12:39:47;99566.28;;;8.69;74.13
20394;BME280;10356;50.544;9.642;2024-01-30T12:42:14;99561.41;;;8.63;74.32
20394;BME280;10356;50.544;9.642;2024-01-30T12:44:41;99562.47;;;8.59;74.55
20394;BME280;10356;50.544;9.642;2024-01-30T12:47:08;99562.66;;;8.55;74.87
20394;BME280;10356;50.544;9.642;2024-01-30T12:49:35;99562.75;;;8.53;75.47
20394;BME280;10356;50.544;9.642;2024-01-30T12:52:02;99555.88;;;8.52;75.95
20394;BME280;10356;50.544;9.642;2024-01-30T12:54:29;99560.44;;;8.47;76.28